Portada
METAR-TAF:

METAR-TAF

Aeropuertos :

Aeropuerto de Bruselas. Zaventem

Bruselas, Bélgica

latitud: 50-54N, longitud: 004-32E, altitud: 55 m

Observación

El informe se hizo hace 16 minutos, a las 15:50 UTC
Viento 5 kt del norte
Temperatura 18°C
Humedad 73%
Presión 1019 hPa
Visibilidad 10 km o más
Escasas nubes a una altura de 3000 ft

METAR: EBBR 171550Z 35005KT 9999 FEW030 18/13 Q1019 NOSIG

Hora: 18:06 (16:06 UTC)

Pronóstico

El informe se hizo hace 4 horas y 56 minutos, a las 11:10 UTC
Pronóstico válido del 17 a las 12 UTC al 18 a las 18 UTC
Viento 4 kt del norte-noreste
Visibilidad 10 km o más
Nubes dispersas a una altura de 2000 ft
Nubes dispersas a una altura de 3500 ft
Probabilidad 30% :
Temporalmente
del 18 a las 03 UTC al 18 a las 07 UTC
Visibilidad: 4000 m
neblina

TAF: EBBR 171110Z 1712/1818 02004KT 9999 SCT020 SCT035 PROB30 TEMPO 1803/1807 4000 BR

Observaciones y pronósticos meteorológicos de más de 4000 aeropuertos (mensajes METAR y TAF).

Los puntos amarillos y rojos representan las estaciones disponibles.

Ponga el ratón en el punto deseado para ver el nombre de la estación.

Haga clic para ver las observaciones y los pronósticos meteorológicos.

Para cambiar el mapa : haga clic en los botones verdes con una cruz de color negro para hacer un zoom, en el botón verde con un guión para alejar o en las flechas verdes para mapas adyacentes.


METAR-TAF: